sensor_id;sensor_type;location;lat;lon;timestamp;P1;durP1;ratioP1;P2;durP2;ratioP2
4885;SDS011;2457;51.788;6.136;2023-10-08T00:00:50;21.20;;;3.63;;
4885;SDS011;2457;51.788;6.136;2023-10-08T00:03:19;9.60;;;2.70;;
4885;SDS011;2457;51.788;6.136;2023-10-08T00:05:49;8.90;;;3.20;;
4885;SDS011;2457;51.788;6.136;2023-10-08T00:08:16;8.30;;;3.03;;
4885;SDS011;2457;51.788;6.136;2023-10-08T00:10:44;11.30;;;3.60;;
4885;SDS011;2457;51.788;6.136;2023-10-08T00:13:11;18.73;;;2.93;;
4885;SDS011;2457;51.788;6.136;2023-10-08T00:15:39;12.70;;;2.97;;
4885;SDS011;2457;51.788;6.136;2023-10-08T00:18:08;15.17;;;3.20;;
4885;SDS011;2457;51.788;6.136;2023-10-08T00:20:37;9.33;;;3.00;;
4885;SDS011;2457;51.788;6.136;2023-10-08T00:23:23;10.10;;;3.07;;
4885;SDS011;2457;51.788;6.136;2023-10-08T00:25:53;11.53;;;3.47;;
4885;SDS011;2457;51.788;6.136;2023-10-08T00:28:21;8.73;;;2.63;;
4885;SDS011;2457;51.788;6.136;2023-10-08T00:30:48;11.33;;;3.20;;
4885;SDS011;2457;51.788;6.136;2023-10-08T00:33:16;10.33;;;2.73;;
4885;SDS011;2457;51.788;6.136;2023-10-08T00:35:43;13.37;;;3.30;;
4885;SDS011;2457;51.788;6.136;2023-10-08T00:38:10;9.27;;;2.60;;
4885;SDS011;2457;51.788;6.136;2023-10-08T00:40:42;9.33;;;2.87;;
4885;SDS011;2457;51.788;6.136;2023-10-08T00:46:00;8.20;;;2.80;;
4885;SDS011;2457;51.788;6.136;2023-10-08T00:48:27;9.73;;;2.60;;
4885;SDS011;2457;51.788;6.136;2023-10-08T00:50:57;13.53;;;3.30;;
4885;SDS011;2457;51.788;6.136;2023-10-08T00:53:29;7.77;;;3.00;;
4885;SDS011;2457;51.788;6.136;2023-10-08T00:55:57;10.30;;;2.80;;
4885;SDS011;2457;51.788;6.136;2023-10-08T00:58:26;10.10;;;3.00;;
4885;SDS011;2457;51.788;6.136;2023-10-08T01:00:54;10.20;;;3.10;;
4885;SDS011;2457;51.788;6.136;2023-10-08T01:03:23;8.15;;;2.40;;
4885;SDS011;2457;51.788;6.136;2023-10-08T01:05:53;18.83;;;3.30;;
4885;SDS011;2457;51.788;6.136;2023-10-08T01:08:21;12.23;;;3.40;;
4885;SDS011;2457;51.788;6.136;2023-10-08T01:10:51;13.47;;;2.80;;
4885;SDS011;2457;51.788;6.136;2023-10-08T01:13:20;12.57;;;3.40;;
4885;SDS011;2457;51.788;6.136;2023-10-08T01:15:47;8.83;;;3.10;;
4885;SDS011;2457;51.788;6.136;2023-10-08T01:18:16;12.43;;;3.50;;
4885;SDS011;2457;51.788;6.136;2023-10-08T01:20:48;13.50;;;3.10;;
4885;SDS011;2457;51.788;6.136;2023-10-08T01:23:17;11.00;;;2.90;;
4885;SDS011;2457;51.788;6.136;2023-10-08T01:25:46;16.50;;;3.23;;
4885;SDS011;2457;51.788;6.136;2023-10-08T01:28:21;8.90;;;3.20;;
4885;SDS011;2457;51.788;6.136;2023-10-08T01:30:56;15.30;;;3.30;;
4885;SDS011;2457;51.788;6.136;2023-10-08T01:33:26;13.50;;;3.60;;
4885;SDS011;2457;51.788;6.136;2023-10-08T01:35:57;14.67;;;2.83;;
4885;SDS011;2457;51.788;6.136;2023-10-08T01:38:31;14.00;;;3.30;;
4885;SDS011;2457;51.788;6.136;2023-10-08T01:41:00;10.77;;;3.20;;
4885;SDS011;2457;51.788;6.136;2023-10-08T01:43:29;17.10;;;3.20;;
4885;SDS011;2457;51.788;6.136;2023-10-08T01:45:56;8.63;;;2.70;;
4885;SDS011;2457;51.788;6.136;2023-10-08T01:48:24;11.50;;;3.20;;
4885;SDS011;2457;51.788;6.136;2023-10-08T01:50:56;15.93;;;3.37;;
4885;SDS011;2457;51.788;6.136;2023-10-08T01:53:25;10.60;;;2.80;;
4885;SDS011;2457;51.788;6.136;2023-10-08T01:55:53;10.43;;;2.87;;
4885;SDS011;2457;51.788;6.136;2023-10-08T01:58:21;9.60;;;2.50;;
4885;SDS011;2457;51.788;6.136;2023-10-08T02:00:50;10.00;;;3.20;;
4885;SDS011;2457;51.788;6.136;2023-10-08T02:03:18;15.77;;;3.37;;
4885;SDS011;2457;51.788;6.136;2023-10-08T02:05:45;10.27;;;3.37;;
4885;SDS011;2457;51.788;6.136;2023-10-08T02:08:13;11.60;;;3.43;;
4885;SDS011;2457;51.788;6.136;2023-10-08T02:10:43;9.83;;;3.07;;
4885;SDS011;2457;51.788;6.136;2023-10-08T02:13:12;12.13;;;2.80;;
4885;SDS011;2457;51.788;6.136;2023-10-08T02:15:44;9.23;;;2.30;;
4885;SDS011;2457;51.788;6.136;2023-10-08T02:18:09;15.07;;;3.60;;
4885;SDS011;2457;51.788;6.136;2023-10-08T02:20:36;8.90;;;2.90;;
4885;SDS011;2457;51.788;6.136;2023-10-08T02:23:04;11.47;;;3.10;;
4885;SDS011;2457;51.788;6.136;2023-10-08T02:25:31;13.10;;;3.10;;
4885;SDS011;2457;51.788;6.136;2023-10-08T02:28:01;12.70;;;3.53;;
4885;SDS011;2457;51.788;6.136;2023-10-08T02:30:29;10.40;;;2.90;;
4885;SDS011;2457;51.788;6.136;2023-10-08T02:32:56;9.03;;;3.13;;
4885;SDS011;2457;51.788;6.136;2023-10-08T02:35:24;10.73;;;3.43;;
4885;SDS011;2457;51.788;6.136;2023-10-08T02:37:53;11.80;;;2.97;;
4885;SDS011;2457;51.788;6.136;2023-10-08T02:40:21;11.40;;;3.20;;
4885;SDS011;2457;51.788;6.136;2023-10-08T02:42:56;9.77;;;3.13;;
4885;SDS011;2457;51.788;6.136;2023-10-08T02:45:27;8.53;;;3.10;;
4885;SDS011;2457;51.788;6.136;2023-10-08T02:47:55;10.40;;;2.90;;
4885;SDS011;2457;51.788;6.136;2023-10-08T02:50:23;12.93;;;3.60;;
4885;SDS011;2457;51.788;6.136;2023-10-08T02:52:52;17.00;;;3.30;;
4885;SDS011;2457;51.788;6.136;2023-10-08T02:55:19;10.87;;;3.00;;
4885;SDS011;2457;51.788;6.136;2023-10-08T02:57:51;6.50;;;2.80;;
4885;SDS011;2457;51.788;6.136;2023-10-08T03:00:18;13.67;;;3.67;;
4885;SDS011;2457;51.788;6.136;2023-10-08T03:02:46;14.20;;;3.43;;
4885;SDS011;2457;51.788;6.136;2023-10-08T03:05:13;8.30;;;2.43;;
4885;SDS011;2457;51.788;6.136;2023-10-08T03:07:42;10.40;;;3.00;;
4885;SDS011;2457;51.788;6.136;2023-10-08T03:10:10;10.53;;;2.73;;
4885;SDS011;2457;51.788;6.136;2023-10-08T03:12:45;10.37;;;2.80;;
4885;SDS011;2457;51.788;6.136;2023-10-08T03:15:14;9.40;;;2.80;;
4885;SDS011;2457;51.788;6.136;2023-10-08T03:18:01;14.03;;;3.83;;
4885;SDS011;2457;51.788;6.136;2023-10-08T03:20:30;8.47;;;2.50;;
4885;SDS011;2457;51.788;6.136;2023-10-08T03:23:12;9.50;;;3.17;;
4885;SDS011;2457;51.788;6.136;2023-10-08T03:25:41;10.13;;;3.53;;
4885;SDS011;2457;51.788;6.136;2023-10-08T03:28:09;10.10;;;2.97;;
4885;SDS011;2457;51.788;6.136;2023-10-08T03:30:38;8.23;;;2.87;;
4885;SDS011;2457;51.788;6.136;2023-10-08T03:33:07;12.07;;;3.50;;
4885;SDS011;2457;51.788;6.136;2023-10-08T03:35:36;10.90;;;2.90;;
4885;SDS011;2457;51.788;6.136;2023-10-08T03:38:03;15.23;;;3.70;;
4885;SDS011;2457;51.788;6.136;2023-10-08T03:40:32;11.40;;;3.30;;
4885;SDS011;2457;51.788;6.136;2023-10-08T03:43:01;11.70;;;3.73;;
4885;SDS011;2457;51.788;6.136;2023-10-08T03:45:30;9.87;;;3.13;;
4885;SDS011;2457;51.788;6.136;2023-10-08T03:48:16;10.50;;;2.77;;
4885;SDS011;2457;51.788;6.136;2023-10-08T03:50:43;10.00;;;2.67;;
4885;SDS011;2457;51.788;6.136;2023-10-08T03:53:11;8.90;;;3.13;;
4885;SDS011;2457;51.788;6.136;2023-10-08T03:55:38;9.80;;;3.60;;
4885;SDS011;2457;51.788;6.136;2023-10-08T03:58:09;9.60;;;3.03;;
4885;SDS011;2457;51.788;6.136;2023-10-08T04:00:38;13.43;;;3.10;;
4885;SDS011;2457;51.788;6.136;2023-10-08T04:03:08;11.10;;;3.00;;
4885;SDS011;2457;51.788;6.136;2023-10-08T04:05:37;12.67;;;3.83;;
4885;SDS011;2457;51.788;6.136;2023-10-08T04:08:18;16.50;;;4.50;;
4885;SDS011;2457;51.788;6.136;2023-10-08T04:10:53;10.07;;;3.10;;
4885;SDS011;2457;51.788;6.136;2023-10-08T04:13:34;8.23;;;2.40;;
4885;SDS011;2457;51.788;6.136;2023-10-08T04:16:06;8.93;;;2.83;;
4885;SDS011;2457;51.788;6.136;2023-10-08T04:18:33;8.60;;;2.90;;
4885;SDS011;2457;51.788;6.136;2023-10-08T04:21:02;12.57;;;3.27;;
4885;SDS011;2457;51.788;6.136;2023-10-08T04:23:34;9.17;;;2.47;;
4885;SDS011;2457;51.788;6.136;2023-10-08T04:26:03;9.87;;;3.07;;
4885;SDS011;2457;51.788;6.136;2023-10-08T04:28:32;10.80;;;3.40;;
4885;SDS011;2457;51.788;6.136;2023-10-08T04:31:01;12.70;;;3.67;;
4885;SDS011;2457;51.788;6.136;2023-10-08T04:33:30;18.53;;;3.80;;
4885;SDS011;2457;51.788;6.136;2023-10-08T04:35:59;11.97;;;3.20;;
4885;SDS011;2457;51.788;6.136;2023-10-08T04:38:28;9.33;;;2.93;;
4885;SDS011;2457;51.788;6.136;2023-10-08T04:40:57;21.33;;;3.70;;
4885;SDS011;2457;51.788;6.136;2023-10-08T04:43:26;12.33;;;3.17;;
4885;SDS011;2457;51.788;6.136;2023-10-08T04:45:55;14.20;;;4.10;;
4885;SDS011;2457;51.788;6.136;2023-10-08T04:48:25;11.90;;;3.60;;
4885;SDS011;2457;51.788;6.136;2023-10-08T04:50:54;8.60;;;2.97;;
4885;SDS011;2457;51.788;6.136;2023-10-08T04:53:28;8.60;;;3.10;;
4885;SDS011;2457;51.788;6.136;2023-10-08T04:56:02;12.10;;;4.20;;
4885;SDS011;2457;51.788;6.136;2023-10-08T04:58:34;16.50;;;3.07;;
4885;SDS011;2457;51.788;6.136;2023-10-08T05:01:04;11.00;;;3.30;;
4885;SDS011;2457;51.788;6.136;2023-10-08T05:03:50;9.43;;;3.23;;
4885;SDS011;2457;51.788;6.136;2023-10-08T05:06:26;12.17;;;3.20;;
4885;SDS011;2457;51.788;6.136;2023-10-08T05:09:05;10.67;;;3.30;;
4885;SDS011;2457;51.788;6.136;2023-10-08T05:11:40;13.63;;;3.47;;
4885;SDS011;2457;51.788;6.136;2023-10-08T05:14:18;9.33;;;2.90;;
4885;SDS011;2457;51.788;6.136;2023-10-08T05:17:00;14.57;;;4.07;;
4885;SDS011;2457;51.788;6.136;2023-10-08T05:19:32;15.65;;;4.00;;
4885;SDS011;2457;51.788;6.136;2023-10-08T05:22:17;8.23;;;2.90;;
4885;SDS011;2457;51.788;6.136;2023-10-08T05:24:51;8.97;;;3.10;;
4885;SDS011;2457;51.788;6.136;2023-10-08T05:27:33;13.07;;;3.30;;
4885;SDS011;2457;51.788;6.136;2023-10-08T05:30:22;17.07;;;4.00;;
4885;SDS011;2457;51.788;6.136;2023-10-08T05:32:57;15.10;;;4.50;;
4885;SDS011;2457;51.788;6.136;2023-10-08T05:35:42;11.37;;;3.57;;
4885;SDS011;2457;51.788;6.136;2023-10-08T05:38:13;10.43;;;3.27;;
4885;SDS011;2457;51.788;6.136;2023-10-08T05:40:45;15.33;;;3.40;;
4885;SDS011;2457;51.788;6.136;2023-10-08T05:43:27;15.73;;;3.70;;
4885;SDS011;2457;51.788;6.136;2023-10-08T05:46:02;13.27;;;3.33;;
4885;SDS011;2457;51.788;6.136;2023-10-08T05:48:56;12.33;;;3.70;;
4885;SDS011;2457;51.788;6.136;2023-10-08T05:51:36;8.80;;;3.87;;
4885;SDS011;2457;51.788;6.136;2023-10-08T05:54:19;13.93;;;3.27;;
4885;SDS011;2457;51.788;6.136;2023-10-08T05:57:03;13.33;;;3.47;;
4885;SDS011;2457;51.788;6.136;2023-10-08T05:59:36;10.47;;;3.40;;
4885;SDS011;2457;51.788;6.136;2023-10-08T06:02:20;13.13;;;4.00;;
4885;SDS011;2457;51.788;6.136;2023-10-08T06:05:01;8.87;;;3.20;;
4885;SDS011;2457;51.788;6.136;2023-10-08T06:07:44;12.23;;;3.57;;
4885;SDS011;2457;51.788;6.136;2023-10-08T06:10:16;15.80;;;3.50;;
4885;SDS011;2457;51.788;6.136;2023-10-08T06:13:01;11.47;;;3.27;;
4885;SDS011;2457;51.788;6.136;2023-10-08T06:15:36;14.70;;;2.87;;
4885;SDS011;2457;51.788;6.136;2023-10-08T06:18:18;16.47;;;3.57;;
4885;SDS011;2457;51.788;6.136;2023-10-08T06:20:46;15.07;;;3.07;;
4885;SDS011;2457;51.788;6.136;2023-10-08T06:23:14;12.67;;;3.20;;
4885;SDS011;2457;51.788;6.136;2023-10-08T06:25:45;13.77;;;3.47;;
4885;SDS011;2457;51.788;6.136;2023-10-08T06:28:15;15.20;;;3.10;;
4885;SDS011;2457;51.788;6.136;2023-10-08T06:30:51;15.17;;;3.40;;
4885;SDS011;2457;51.788;6.136;2023-10-08T06:33:15;16.60;;;2.90;;
4885;SDS011;2457;51.788;6.136;2023-10-08T06:35:45;13.10;;;4.03;;
4885;SDS011;2457;51.788;6.136;2023-10-08T06:38:15;14.27;;;4.40;;
4885;SDS011;2457;51.788;6.136;2023-10-08T06:40:43;10.57;;;3.30;;
4885;SDS011;2457;51.788;6.136;2023-10-08T06:43:11;16.13;;;3.30;;
4885;SDS011;2457;51.788;6.136;2023-10-08T06:45:40;9.60;;;3.03;;
4885;SDS011;2457;51.788;6.136;2023-10-08T06:48:09;12.63;;;4.23;;
4885;SDS011;2457;51.788;6.136;2023-10-08T06:50:39;9.30;;;3.57;;
4885;SDS011;2457;51.788;6.136;2023-10-08T06:53:07;7.63;;;2.63;;
4885;SDS011;2457;51.788;6.136;2023-10-08T06:55:34;11.83;;;3.47;;
4885;SDS011;2457;51.788;6.136;2023-10-08T06:58:02;12.63;;;2.80;;
4885;SDS011;2457;51.788;6.136;2023-10-08T07:00:33;8.37;;;3.50;;
4885;SDS011;2457;51.788;6.136;2023-10-08T07:03:08;9.60;;;3.53;;
4885;SDS011;2457;51.788;6.136;2023-10-08T07:05:42;10.27;;;3.17;;
4885;SDS011;2457;51.788;6.136;2023-10-08T07:08:11;9.83;;;3.20;;
4885;SDS011;2457;51.788;6.136;2023-10-08T07:10:40;11.70;;;3.50;;
4885;SDS011;2457;51.788;6.136;2023-10-08T07:13:12;13.23;;;3.53;;
4885;SDS011;2457;51.788;6.136;2023-10-08T07:15:41;10.07;;;3.57;;
4885;SDS011;2457;51.788;6.136;2023-10-08T07:18:10;8.20;;;3.27;;
4885;SDS011;2457;51.788;6.136;2023-10-08T07:20:39;7.37;;;2.90;;
4885;SDS011;2457;51.788;6.136;2023-10-08T07:23:08;6.90;;;2.27;;
4885;SDS011;2457;51.788;6.136;2023-10-08T07:25:37;6.73;;;2.70;;
4885;SDS011;2457;51.788;6.136;2023-10-08T07:28:05;7.80;;;3.47;;
4885;SDS011;2457;51.788;6.136;2023-10-08T07:30:36;11.70;;;3.13;;
4885;SDS011;2457;51.788;6.136;2023-10-08T07:33:03;11.57;;;3.43;;
4885;SDS011;2457;51.788;6.136;2023-10-08T07:35:30;5.90;;;2.20;;
4885;SDS011;2457;51.788;6.136;2023-10-08T07:37:59;9.13;;;2.50;;
4885;SDS011;2457;51.788;6.136;2023-10-08T07:40:28;7.97;;;3.00;;
4885;SDS011;2457;51.788;6.136;2023-10-08T07:42:57;8.53;;;2.50;;
4885;SDS011;2457;51.788;6.136;2023-10-08T07:45:26;6.20;;;1.83;;
4885;SDS011;2457;51.788;6.136;2023-10-08T07:47:53;7.03;;;2.20;;
4885;SDS011;2457;51.788;6.136;2023-10-08T07:50:21;5.03;;;1.50;;
4885;SDS011;2457;51.788;6.136;2023-10-08T07:52:50;6.57;;;2.07;;
4885;SDS011;2457;51.788;6.136;2023-10-08T07:55:17;5.73;;;1.90;;
4885;SDS011;2457;51.788;6.136;2023-10-08T07:57:44;6.07;;;1.90;;
4885;SDS011;2457;51.788;6.136;2023-10-08T08:00:12;7.90;;;1.87;;
4885;SDS011;2457;51.788;6.136;2023-10-08T08:02:47;6.57;;;2.00;;
4885;SDS011;2457;51.788;6.136;2023-10-08T08:05:16;7.37;;;1.67;;
4885;SDS011;2457;51.788;6.136;2023-10-08T08:07:43;8.73;;;2.23;;
4885;SDS011;2457;51.788;6.136;2023-10-08T08:10:15;5.50;;;1.80;;
4885;SDS011;2457;51.788;6.136;2023-10-08T08:12:44;5.40;;;1.50;;
4885;SDS011;2457;51.788;6.136;2023-10-08T08:15:12;6.10;;;1.40;;
4885;SDS011;2457;51.788;6.136;2023-10-08T08:17:41;5.00;;;1.20;;
4885;SDS011;2457;51.788;6.136;2023-10-08T08:20:09;8.00;;;1.67;;
4885;SDS011;2457;51.788;6.136;2023-10-08T08:22:45;5.53;;;1.20;;
4885;SDS011;2457;51.788;6.136;2023-10-08T08:25:14;6.53;;;1.50;;
4885;SDS011;2457;51.788;6.136;2023-10-08T08:27:42;6.63;;;1.30;;
4885;SDS011;2457;51.788;6.136;2023-10-08T08:30:11;8.90;;;1.30;;
4885;SDS011;2457;51.788;6.136;2023-10-08T08:32:40;4.43;;;1.07;;
4885;SDS011;2457;51.788;6.136;2023-10-08T08:35:09;5.03;;;1.03;;
4885;SDS011;2457;51.788;6.136;2023-10-08T08:37:37;4.80;;;1.20;;
4885;SDS011;2457;51.788;6.136;2023-10-08T08:40:06;5.27;;;1.00;;
4885;SDS011;2457;51.788;6.136;2023-10-08T08:42:38;7.40;;;1.10;;
4885;SDS011;2457;51.788;6.136;2023-10-08T08:45:08;8.40;;;1.20;;
4885;SDS011;2457;51.788;6.136;2023-10-08T08:47:35;6.40;;;1.17;;
4885;SDS011;2457;51.788;6.136;2023-10-08T08:50:03;5.77;;;1.33;;
4885;SDS011;2457;51.788;6.136;2023-10-08T08:52:38;4.63;;;0.97;;
4885;SDS011;2457;51.788;6.136;2023-10-08T08:55:06;5.97;;;1.50;;
4885;SDS011;2457;51.788;6.136;2023-10-08T08:57:38;7.80;;;1.40;;
4885;SDS011;2457;51.788;6.136;2023-10-08T09:00:06;7.73;;;1.30;;
4885;SDS011;2457;51.788;6.136;2023-10-08T09:02:37;9.23;;;1.40;;
4885;SDS011;2457;51.788;6.136;2023-10-08T09:05:05;4.70;;;1.30;;
4885;SDS011;2457;51.788;6.136;2023-10-08T09:07:34;5.50;;;1.23;;
4885;SDS011;2457;51.788;6.136;2023-10-08T09:10:02;6.20;;;1.40;;
4885;SDS011;2457;51.788;6.136;2023-10-08T09:12:31;4.80;;;1.50;;
4885;SDS011;2457;51.788;6.136;2023-10-08T09:15:00;5.83;;;1.50;;
4885;SDS011;2457;51.788;6.136;2023-10-08T09:17:29;4.57;;;1.10;;
4885;SDS011;2457;51.788;6.136;2023-10-08T09:19:56;4.70;;;1.30;;
4885;SDS011;2457;51.788;6.136;2023-10-08T09:22:25;6.00;;;1.40;;
4885;SDS011;2457;51.788;6.136;2023-10-08T09:24:53;7.20;;;1.53;;
4885;SDS011;2457;51.788;6.136;2023-10-08T09:27:21;6.00;;;1.40;;
4885;SDS011;2457;51.788;6.136;2023-10-08T09:29:50;6.37;;;1.60;;
4885;SDS011;2457;51.788;6.136;2023-10-08T09:32:17;5.10;;;1.40;;
4885;SDS011;2457;51.788;6.136;2023-10-08T09:34:46;4.43;;;1.10;;
4885;SDS011;2457;51.788;6.136;2023-10-08T09:37:14;4.20;;;1.03;;
4885;SDS011;2457;51.788;6.136;2023-10-08T09:39:41;5.00;;;1.50;;
4885;SDS011;2457;51.788;6.136;2023-10-08T09:42:11;4.87;;;1.30;;
4885;SDS011;2457;51.788;6.136;2023-10-08T09:44:40;5.33;;;1.30;;
4885;SDS011;2457;51.788;6.136;2023-10-08T09:47:09;5.27;;;1.10;;
4885;SDS011;2457;51.788;6.136;2023-10-08T09:49:42;5.17;;;1.40;;
4885;SDS011;2457;51.788;6.136;2023-10-08T09:52:08;5.10;;;1.17;;
4885;SDS011;2457;51.788;6.136;2023-10-08T09:54:43;5.20;;;1.23;;
4885;SDS011;2457;51.788;6.136;2023-10-08T09:57:11;6.43;;;1.53;;
4885;SDS011;2457;51.788;6.136;2023-10-08T09:59:39;4.90;;;1.47;;
4885;SDS011;2457;51.788;6.136;2023-10-08T10:02:07;4.70;;;1.10;;
4885;SDS011;2457;51.788;6.136;2023-10-08T10:04:41;5.40;;;1.27;;
4885;SDS011;2457;51.788;6.136;2023-10-08T10:07:08;7.10;;;1.40;;
4885;SDS011;2457;51.788;6.136;2023-10-08T10:09:37;6.60;;;1.60;;
4885;SDS011;2457;51.788;6.136;2023-10-08T10:12:05;6.27;;;1.37;;
4885;SDS011;2457;51.788;6.136;2023-10-08T10:14:47;9.90;;;1.50;;
4885;SDS011;2457;51.788;6.136;2023-10-08T10:17:14;4.50;;;1.20;;
4885;SDS011;2457;51.788;6.136;2023-10-08T10:19:43;5.10;;;1.67;;
4885;SDS011;2457;51.788;6.136;2023-10-08T10:22:15;6.37;;;1.57;;
4885;SDS011;2457;51.788;6.136;2023-10-08T10:24:48;4.77;;;1.50;;
4885;SDS011;2457;51.788;6.136;2023-10-08T10:27:14;8.20;;;1.73;;
4885;SDS011;2457;51.788;6.136;2023-10-08T10:29:42;10.47;;;2.27;;
4885;SDS011;2457;51.788;6.136;2023-10-08T10:32:10;7.30;;;2.27;;
4885;SDS011;2457;51.788;6.136;2023-10-08T10:34:40;5.17;;;1.70;;
4885;SDS011;2457;51.788;6.136;2023-10-08T10:37:07;6.10;;;2.07;;
4885;SDS011;2457;51.788;6.136;2023-10-08T10:39:52;8.63;;;1.90;;
4885;SDS011;2457;51.788;6.136;2023-10-08T10:42:24;5.13;;;1.53;;
4885;SDS011;2457;51.788;6.136;2023-10-08T10:44:54;6.10;;;1.70;;
4885;SDS011;2457;51.788;6.136;2023-10-08T10:47:23;5.00;;;1.80;;
4885;SDS011;2457;51.788;6.136;2023-10-08T10:49:54;6.67;;;3.00;;
4885;SDS011;2457;51.788;6.136;2023-10-08T10:52:35;5.10;;;1.60;;
4885;SDS011;2457;51.788;6.136;2023-10-08T10:55:12;7.10;;;1.67;;
4885;SDS011;2457;51.788;6.136;2023-10-08T10:57:46;4.90;;;1.60;;
4885;SDS011;2457;51.788;6.136;2023-10-08T11:00:15;8.67;;;2.00;;
4885;SDS011;2457;51.788;6.136;2023-10-08T11:02:44;6.97;;;2.87;;
4885;SDS011;2457;51.788;6.136;2023-10-08T11:05:15;5.20;;;1.50;;
4885;SDS011;2457;51.788;6.136;2023-10-08T11:07:43;5.77;;;2.13;;
4885;SDS011;2457;51.788;6.136;2023-10-08T11:10:11;4.70;;;1.53;;
4885;SDS011;2457;51.788;6.136;2023-10-08T11:12:40;12.80;;;1.63;;
4885;SDS011;2457;51.788;6.136;2023-10-08T11:15:12;4.87;;;1.50;;
4885;SDS011;2457;51.788;6.136;2023-10-08T11:17:44;12.23;;;1.87;;
4885;SDS011;2457;51.788;6.136;2023-10-08T11:20:23;4.70;;;1.30;;
4885;SDS011;2457;51.788;6.136;2023-10-08T11:22:51;5.83;;;1.43;;
4885;SDS011;2457;51.788;6.136;2023-10-08T11:25:20;6.17;;;2.90;;
4885;SDS011;2457;51.788;6.136;2023-10-08T11:27:53;4.90;;;2.03;;
4885;SDS011;2457;51.788;6.136;2023-10-08T11:30:31;6.07;;;1.57;;
4885;SDS011;2457;51.788;6.136;2023-10-08T11:33:00;4.40;;;1.30;;
4885;SDS011;2457;51.788;6.136;2023-10-08T11:35:27;7.40;;;1.50;;
4885;SDS011;2457;51.788;6.136;2023-10-08T11:37:57;4.90;;;1.20;;
4885;SDS011;2457;51.788;6.136;2023-10-08T11:40:24;4.90;;;1.40;;
4885;SDS011;2457;51.788;6.136;2023-10-08T11:42:55;4.73;;;1.40;;
4885;SDS011;2457;51.788;6.136;2023-10-08T11:45:29;5.60;;;1.27;;
4885;SDS011;2457;51.788;6.136;2023-10-08T11:47:54;9.20;;;1.53;;
4885;SDS011;2457;51.788;6.136;2023-10-08T11:50:26;6.23;;;1.40;;
4885;SDS011;2457;51.788;6.136;2023-10-08T11:53:01;5.57;;;1.50;;
4885;SDS011;2457;51.788;6.136;2023-10-08T11:55:33;5.00;;;2.23;;
4885;SDS011;2457;51.788;6.136;2023-10-08T11:58:05;5.33;;;1.33;;
4885;SDS011;2457;51.788;6.136;2023-10-08T12:00:37;10.47;;;1.47;;
4885;SDS011;2457;51.788;6.136;2023-10-08T12:03:06;5.20;;;1.50;;
4885;SDS011;2457;51.788;6.136;2023-10-08T12:05:35;5.47;;;1.30;;
4885;SDS011;2457;51.788;6.136;2023-10-08T12:08:04;4.67;;;1.70;;
4885;SDS011;2457;51.788;6.136;2023-10-08T12:10:33;5.30;;;1.20;;
4885;SDS011;2457;51.788;6.136;2023-10-08T12:13:00;4.20;;;1.00;;
4885;SDS011;2457;51.788;6.136;2023-10-08T12:15:29;5.10;;;1.30;;
4885;SDS011;2457;51.788;6.136;2023-10-08T12:18:08;4.70;;;1.37;;
4885;SDS011;2457;51.788;6.136;2023-10-08T12:20:37;6.47;;;1.63;;
4885;SDS011;2457;51.788;6.136;2023-10-08T12:23:05;7.50;;;3.13;;
4885;SDS011;2457;51.788;6.136;2023-10-08T12:25:32;6.93;;;2.33;;
4885;SDS011;2457;51.788;6.136;2023-10-08T12:28:00;5.63;;;1.90;;
4885;SDS011;2457;51.788;6.136;2023-10-08T12:30:31;14.53;;;2.00;;
4885;SDS011;2457;51.788;6.136;2023-10-08T12:32:59;7.10;;;2.50;;
4885;SDS011;2457;51.788;6.136;2023-10-08T12:35:26;5.17;;;1.90;;
4885;SDS011;2457;51.788;6.136;2023-10-08T12:37:55;6.33;;;2.13;;
4885;SDS011;2457;51.788;6.136;2023-10-08T12:40:23;7.50;;;2.37;;
4885;SDS011;2457;51.788;6.136;2023-10-08T12:45:19;8.00;;;3.97;;
4885;SDS011;2457;51.788;6.136;2023-10-08T12:47:50;8.20;;;2.50;;
4885;SDS011;2457;51.788;6.136;2023-10-08T12:50:19;7.80;;;4.10;;
4885;SDS011;2457;51.788;6.136;2023-10-08T12:52:51;7.70;;;3.80;;
4885;SDS011;2457;51.788;6.136;2023-10-08T12:55:22;9.60;;;4.03;;
4885;SDS011;2457;51.788;6.136;2023-10-08T12:57:51;11.33;;;3.90;;
4885;SDS011;2457;51.788;6.136;2023-10-08T13:00:25;8.30;;;4.00;;
4885;SDS011;2457;51.788;6.136;2023-10-08T13:02:52;8.10;;;2.77;;
4885;SDS011;2457;51.788;6.136;2023-10-08T13:05:24;12.40;;;4.33;;
4885;SDS011;2457;51.788;6.136;2023-10-08T13:07:54;7.70;;;3.70;;
4885;SDS011;2457;51.788;6.136;2023-10-08T13:10:22;8.37;;;3.77;;
4885;SDS011;2457;51.788;6.136;2023-10-08T13:12:49;8.67;;;4.07;;
4885;SDS011;2457;51.788;6.136;2023-10-08T13:15:17;8.13;;;4.00;;
4885;SDS011;2457;51.788;6.136;2023-10-08T13:17:44;10.43;;;4.63;;
4885;SDS011;2457;51.788;6.136;2023-10-08T13:20:12;9.43;;;4.27;;
4885;SDS011;2457;51.788;6.136;2023-10-08T13:22:40;6.83;;;3.00;;
4885;SDS011;2457;51.788;6.136;2023-10-08T13:25:09;7.77;;;3.10;;
4885;SDS011;2457;51.788;6.136;2023-10-08T13:27:38;9.83;;;3.20;;
4885;SDS011;2457;51.788;6.136;2023-10-08T13:30:06;7.77;;;3.00;;
4885;SDS011;2457;51.788;6.136;2023-10-08T13:32:35;7.10;;;2.47;;
4885;SDS011;2457;51.788;6.136;2023-10-08T13:35:07;9.33;;;2.93;;
4885;SDS011;2457;51.788;6.136;2023-10-08T13:37:32;7.03;;;3.00;;
4885;SDS011;2457;51.788;6.136;2023-10-08T13:40:00;6.47;;;2.40;;
4885;SDS011;2457;51.788;6.136;2023-10-08T13:42:27;7.20;;;3.17;;
4885;SDS011;2457;51.788;6.136;2023-10-08T13:44:55;8.50;;;3.03;;
4885;SDS011;2457;51.788;6.136;2023-10-08T13:47:27;6.70;;;2.73;;
4885;SDS011;2457;51.788;6.136;2023-10-08T13:49:56;7.03;;;2.73;;
4885;SDS011;2457;51.788;6.136;2023-10-08T13:52:24;9.33;;;2.60;;
4885;SDS011;2457;51.788;6.136;2023-10-08T13:54:52;11.67;;;2.47;;
4885;SDS011;2457;51.788;6.136;2023-10-08T13:57:20;6.77;;;2.47;;
4885;SDS011;2457;51.788;6.136;2023-10-08T13:59:48;7.53;;;2.50;;
4885;SDS011;2457;51.788;6.136;2023-10-08T14:02:15;8.40;;;2.33;;
4885;SDS011;2457;51.788;6.136;2023-10-08T14:04:44;9.30;;;3.60;;
4885;SDS011;2457;51.788;6.136;2023-10-08T14:07:12;6.80;;;2.43;;
4885;SDS011;2457;51.788;6.136;2023-10-08T14:09:41;6.63;;;2.70;;
4885;SDS011;2457;51.788;6.136;2023-10-08T14:12:08;9.93;;;3.10;;
4885;SDS011;2457;51.788;6.136;2023-10-08T14:14:37;9.77;;;2.90;;
4885;SDS011;2457;51.788;6.136;2023-10-08T14:17:06;8.10;;;2.70;;
4885;SDS011;2457;51.788;6.136;2023-10-08T14:19:36;12.60;;;3.20;;
4885;SDS011;2457;51.788;6.136;2023-10-08T14:22:15;7.23;;;2.90;;
4885;SDS011;2457;51.788;6.136;2023-10-08T14:24:43;11.70;;;3.00;;
4885;SDS011;2457;51.788;6.136;2023-10-08T14:27:12;9.13;;;3.00;;
4885;SDS011;2457;51.788;6.136;2023-10-08T14:29:41;10.80;;;2.87;;
4885;SDS011;2457;51.788;6.136;2023-10-08T14:32:13;7.20;;;3.00;;
4885;SDS011;2457;51.788;6.136;2023-10-08T14:34:41;11.13;;;2.90;;
4885;SDS011;2457;51.788;6.136;2023-10-08T14:37:25;7.83;;;2.60;;
4885;SDS011;2457;51.788;6.136;2023-10-08T14:40:10;10.10;;;3.83;;
4885;SDS011;2457;51.788;6.136;2023-10-08T14:42:56;7.93;;;2.70;;
4885;SDS011;2457;51.788;6.136;2023-10-08T14:45:25;7.90;;;2.77;;
4885;SDS011;2457;51.788;6.136;2023-10-08T14:47:56;10.20;;;3.33;;
4885;SDS011;2457;51.788;6.136;2023-10-08T14:50:24;8.53;;;3.23;;
4885;SDS011;2457;51.788;6.136;2023-10-08T14:52:53;10.53;;;3.20;;
4885;SDS011;2457;51.788;6.136;2023-10-08T14:55:25;13.27;;;3.00;;
4885;SDS011;2457;51.788;6.136;2023-10-08T14:57:53;6.30;;;1.83;;
4885;SDS011;2457;51.788;6.136;2023-10-08T15:00:20;7.27;;;2.60;;
4885;SDS011;2457;51.788;6.136;2023-10-08T15:02:51;9.60;;;2.30;;
4885;SDS011;2457;51.788;6.136;2023-10-08T15:05:20;6.07;;;2.33;;
4885;SDS011;2457;51.788;6.136;2023-10-08T15:07:49;7.70;;;3.10;;
4885;SDS011;2457;51.788;6.136;2023-10-08T15:10:19;5.60;;;1.80;;
4885;SDS011;2457;51.788;6.136;2023-10-08T15:12:48;7.23;;;2.43;;
4885;SDS011;2457;51.788;6.136;2023-10-08T15:15:16;5.83;;;2.10;;
4885;SDS011;2457;51.788;6.136;2023-10-08T15:17:44;6.90;;;1.97;;
4885;SDS011;2457;51.788;6.136;2023-10-08T15:20:13;6.93;;;2.10;;
4885;SDS011;2457;51.788;6.136;2023-10-08T15:22:43;6.50;;;2.63;;
4885;SDS011;2457;51.788;6.136;2023-10-08T15:25:10;8.87;;;2.50;;
4885;SDS011;2457;51.788;6.136;2023-10-08T15:27:41;8.33;;;2.40;;
4885;SDS011;2457;51.788;6.136;2023-10-08T15:30:10;7.80;;;2.53;;
4885;SDS011;2457;51.788;6.136;2023-10-08T15:32:38;7.47;;;2.23;;
4885;SDS011;2457;51.788;6.136;2023-10-08T15:35:14;9.10;;;3.20;;